NOAA/GLERL Met Station at Michigan City, IN

Previous 5 days (top of hour only)
See slso Previous 3 Hours (2 minute increments)
Jump down to Data
Switch to [English][Metric]
Zoom: Click and drag, Pan: shift-click and drag, Unzoom: double-click, Unzoom All





Zoom: Click and drag, Pan: shift-click and drag, Unzoom: double-click, Unzoom All

Note: Speed = mean wind during 2-minute period at top of hour,
Gust = max wind during 2-minute period at top of hour,
Peak = max wind during entire hour.
• See also 5-day windrose plot

NOAA/GLERL Met Station at Michigan City, IN

Previous 5 days (top of hour only)
See slso Previous 3 Hours (2 minute increments)
Jump up to Graphs
Switch to [English][Metric]
                  Wind  Wind  Wind   Air   Dew   Rel     Sta   PAR
                   Spd   Gst   Dir  Temp    Pt   Hum    Pres uE/m2/
YYYY-MM-DD   CDT   kts   kts   deg     F     F     %   in Hg   sec
2016-08-27 08:00   7.6   8.0    64  68.9  68.9 100.0    0.00     0
2016-08-27 07:00   5.6   6.0    33  69.4  69.3  99.4    0.00     0
2016-08-27 06:00   6.4   7.6   235  70.5  66.6  87.2    0.00     0
2016-08-27 05:00   4.7   5.4    48  70.3  65.7  85.0    0.00     0
2016-08-27 04:00   5.4   6.4    71  69.6  64.2  82.6    0.00     0
2016-08-27 03:00   6.8   7.6    48  69.3  64.1  83.4    0.00     0
2016-08-27 02:00   6.8   7.4    42  69.8  63.9  81.2    0.00     0
2016-08-27 01:00   5.1   6.2    46  69.8  63.1  79.0    0.00     0
2016-08-27 00:00   8.6   9.7    50  70.5  62.4  75.1    0.00     0
2016-08-26 23:00  12.8  14.2    41  71.4  62.6  73.3    0.00     0
2016-08-26 22:00  11.7  13.4    39  72.1  62.2  70.4    0.00     0
2016-08-26 21:00  13.4  14.6    35  72.9  65.4  77.1    0.00     0
2016-08-26 20:00  14.0  15.4    26  72.9  64.3  74.1    0.00     0
2016-08-26 19:00  13.0  14.6    21  72.9  64.5  74.8    0.00     0
2016-08-26 18:00  12.6  13.6    23  72.7  64.8  76.0    0.00     0
2016-08-26 17:00  11.7  12.2    11  72.7  64.8  76.0    0.00     0
2016-08-26 16:00  12.2  13.0    11  72.7  64.2  74.3    0.00     0
2016-08-26 15:00  10.9  12.2     7  73.0  64.3  73.8    0.00     0
2016-08-26 14:00  10.1  10.5    14  73.0  63.3  71.2    0.00     0
2016-08-26 13:00   9.1   9.9   357  73.2  65.2  75.7    0.00     0
2016-08-26 12:00   9.1   9.7   350  73.6  65.8  76.3    0.00     0
2016-08-26 11:00   7.2   8.0   355  73.4  65.9  77.0    0.00     0
2016-08-26 10:00   5.6   6.4     5  73.0  66.6  79.9    0.00     0
2016-08-26 09:00   5.1   5.6    22  72.9  66.3  79.5    0.00     0
2016-08-26 08:00   7.6   8.7    12  73.0  66.6  79.8    0.00     0
2016-08-26 07:00   5.6   5.8   339  72.7  67.3  82.9    0.00     0
2016-08-26 06:00   8.4   9.1   332  72.7  66.9  81.7    0.00     0
2016-08-26 05:00   8.4   8.7   336  72.7  66.3  80.2    0.00     0
2016-08-26 04:00   6.0   6.8   314  72.7  67.1  82.5    0.00     0
2016-08-26 03:00   5.2   6.0   278  72.5  70.2  92.2    0.00     0
2016-08-26 02:00   1.7   2.3   197  71.8  68.8  90.1    0.00     0
2016-08-26 01:00   2.1   2.3   162  71.8  66.9  84.3    0.00     0
2016-08-26 00:00   2.3   2.7   174  72.7  67.1  82.5    0.00     0
2016-08-25 23:00   0.8   1.4   160  73.2  66.7  79.8    0.00     0
2016-08-25 22:00   2.9   3.1   109  74.1  65.7  74.7    0.00     0
2016-08-25 21:00   2.7   2.7    41  73.8  70.8  90.4    0.00     0
2016-08-25 20:00   4.1   4.3    30  73.8  71.0  91.0    0.00     0
2016-08-25 19:00   6.8   7.2    34  73.4  71.4  93.3    0.00     0
2016-08-25 18:00   5.4   5.6    33  73.6  71.0  91.5    0.00     0
2016-08-25 17:00   4.5   4.9    29  73.4  70.3  89.9    0.00     0
2016-08-25 16:00   2.9   3.3   345  78.8  69.9  73.7    0.00     0
2016-08-25 15:00   4.3   4.7   332  76.1  70.9  83.7    0.00     0
2016-08-25 14:00   4.7   5.1   257  75.2  71.0  86.5    0.00     0
2016-08-25 13:00   4.7   5.2   267  73.6  71.0  91.6    0.00     0
2016-08-25 12:00  14.4  15.7   246  72.9  71.0  93.9    0.00     0
2016-08-25 11:00  15.4  16.3   238  72.9  70.9  93.3    0.00     0
2016-08-25 10:00  13.2  15.4   216  73.6  70.1  88.8    0.00     0
2016-08-25 09:00  11.7  14.2   188  73.2  70.1  89.7    0.00     0
2016-08-25 08:00   6.2   7.2   188  71.4  69.2  92.6    0.00     0
2016-08-25 07:00  13.4  15.4   187  71.2  68.4  90.6    0.00     0
2016-08-25 06:00   8.6  10.1   175  71.6  68.6  90.0    0.00     0
2016-08-25 05:00  13.8  15.7   185  72.0  68.1  87.5    0.00     0
2016-08-25 04:00  17.1  19.1   185  72.3  70.3  93.1    0.00     0
2016-08-25 03:00  10.1  12.4   173  73.4  70.8  91.3    0.00     0
2016-08-25 02:00  11.3  12.2   188  75.0  69.5  82.7    0.00     0
2016-08-25 01:00   8.9   9.9   180  75.6  69.6  81.5    0.00     0
2016-08-25 00:00  11.9  14.2   186  75.2  69.9  83.3    0.00     0
2016-08-24 23:00  11.3  12.2   187  75.7  70.6  83.8    0.00     0
2016-08-24 22:00   8.9   9.7   187  76.1  71.0  83.9    0.00     0
2016-08-24 21:00  10.1  12.2   181  76.6  71.0  82.5    0.00     0
2016-08-24 20:00   8.2   8.9   184  78.1  70.8  78.1    0.00     0
2016-08-24 19:00  11.9  12.4   207  77.2  70.6  79.9    0.00     0
2016-08-24 18:00  10.7  11.1   215  76.6  70.6  81.3    0.00     0
2016-08-24 17:00  13.4  15.0   205  78.6  70.5  75.7    0.00     0
2016-08-24 16:00  12.4  15.4   193  80.1  71.8  75.5    0.00     0
2016-08-24 15:00  16.5  18.3   174  79.2  72.0  78.3    0.00     0
2016-08-24 14:00  20.4  23.9   180  76.3  71.4  84.6    0.00     0
2016-08-24 13:00  17.9  22.0   164  75.0  70.8  86.4    0.00     0
2016-08-24 12:00  10.1  13.4   154  72.5  71.4  96.4    0.00     0
2016-08-24 11:00  12.1  15.2   153  73.2  70.8  92.1    0.00     0
2016-08-24 10:00   9.9  15.0   151  72.5  69.1  89.0    0.00     0
2016-08-24 09:00  12.4  14.2   155  72.5  67.1  82.9    0.00     0
2016-08-24 08:00  14.6  19.8   152  72.1  65.6  79.7    0.00     0
2016-08-24 07:00  11.1  13.0   149  70.7  63.4  77.4    0.00     0
2016-08-24 06:00  14.0  18.3   152  70.5  62.3  74.9    0.00     0
2016-08-24 05:00  10.9  13.0   144  69.6  62.3  77.1    0.00     0
2016-08-24 04:00   8.7  10.9   146  69.8  61.9  75.6    0.00     0
2016-08-24 03:00  13.0  17.3   158  70.2  61.7  74.2    0.00     0
2016-08-24 02:00  10.9  13.6   156  71.2  60.9  69.5    0.00     0
2016-08-24 01:00  10.3  13.6   139  71.1  60.8  69.7    0.00     0
2016-08-24 00:00  10.1  12.6   160  71.4  60.4  67.7    0.00     0
2016-08-23 23:00   9.7  11.7   139  72.0  60.4  66.5    0.00     0
2016-08-23 22:00   7.6  10.5   128  71.8  60.6  67.3    0.00     0
2016-08-23 21:00   6.6   8.6   141  73.6  60.3  62.7    0.00     0
2016-08-23 20:00   7.8   9.5   160  74.7  60.5  60.8    0.00     0
2016-08-23 19:00   8.6  10.1   162  76.6  59.7  55.3    0.00     0
2016-08-23 18:00   9.7  12.1   174  77.0  59.6  54.3    0.00     0
2016-08-23 17:00  12.1  15.4   175  77.9  58.6  50.8    0.00     0
2016-08-23 16:00  12.2  14.8   172  77.5  57.6  49.6    0.00     0
2016-08-23 15:00  10.1  13.2   165  77.2  57.3  49.7    0.00     0
2016-08-23 14:00  13.2  16.9   186  75.9  56.2  49.9    0.00     0
2016-08-23 13:00  14.0  17.3   180  75.4  57.5  53.3    0.00     0
2016-08-23 12:00  14.6  16.1   192  74.5  57.5  55.0    0.00     0
2016-08-23 11:00  14.8  16.9   178  73.8  58.4  58.2    0.00     0
2016-08-23 10:00  10.7  12.4   168  71.4  58.8  63.9    0.00     0
2016-08-23 09:00  10.3  12.4   153  70.2  57.4  63.4    0.00     0
2016-08-23 08:00   8.2  10.1   136  67.1  57.5  70.8    0.00     0
2016-08-23 07:00  10.1  11.7   129  63.7  56.8  78.0    0.00     0
2016-08-23 06:00  10.3  11.9   141  64.0  56.5  76.1    0.00     0
2016-08-23 05:00   9.7  11.3   142  64.0  56.8  76.9    0.00     0
2016-08-23 04:00   9.7  11.9   142  65.3  56.8  73.6    0.00     0
2016-08-23 03:00  12.1  13.6   156  66.7  56.5  69.3    0.00     0
2016-08-23 02:00   8.9  10.5   149  66.9  56.8  69.6    0.00     0
2016-08-23 01:00   8.9  10.5   146  67.6  56.9  68.2    0.00     0
2016-08-23 00:00   9.1  11.1   153  68.7  56.5  64.7    0.00     0
2016-08-22 23:00  10.3  12.2   154  69.1  56.5  63.8    0.00     0
2016-08-22 22:00   9.1  10.3   152  70.0  56.7  62.3    0.00     0
2016-08-22 21:00   8.2  10.7   152  71.4  56.4  58.6    0.00     0
2016-08-22 20:00   7.0   8.6   162  72.7  55.4  54.0    0.00     0
2016-08-22 19:00   6.8   8.2   169  74.5  54.2  48.6    0.00     0